.
WxDataArchive / Data Records for 2015-08-20
2015-08-19 August 2015 2015-08-21

Data Records for Thursday, 20 August 2015

Time	Temp	Chill	HIndex	Humid	Dewpt	 Wind 	HiWind	WindDir	Rain 	Barom
-----	----	-----	------	-----	-----	------	------	-------	-----	-----
00:00	68.6	68.6	68.6	93	66.5	0	1	270	0.01	29.699 
00:05	68.4	68.4	68.4	93	66.3	0	0	---	0.00	29.699 
00:10	68.4	68.4	68.4	93	66.3	0	1	270	0.00	29.699 
00:15	68.3	68.3	68.3	93	66.2	0	0	---	0.00	29.700 
00:20	68.3	68.3	68.3	94	66.5	0	1	270	0.00	29.700 
00:25	68.1	68.1	68.1	94	66.3	0	0	---	0.00	29.700 
00:30	68.1	68.1	68.1	94	66.3	0	0	---	0.01	29.700 
00:35	67.9	67.9	67.9	94	66.1	0	1	270	0.00	29.700 
00:40	67.9	67.9	67.9	94	66.1	0	1	270	0.01	29.700 
00:45	67.8	67.8	67.8	94	66.0	0	1	270	0.03	29.700 
00:50	67.8	67.8	67.8	94	66.0	0	2	270	0.01	29.700 
00:55	67.3	67.3	67.3	93	65.2	1	3	270	0.01	29.700 
01:00	66.8	66.8	66.8	93	64.7	1	3	270	0.00	29.710 
01:05	66.4	66.4	66.4	94	64.6	1	3	270	0.00	29.710 
01:10	66.4	66.4	66.4	94	64.6	1	4	270	0.02	29.710 
01:15	66.3	66.3	66.3	94	64.5	1	3	270	0.02	29.708 
01:20	66.0	66.0	66.0	94	64.2	1	3	270	0.01	29.708 
01:25	65.6	65.6	65.6	94	63.8	2	5	270	0.01	29.708 
01:30	65.3	65.3	65.3	94	63.5	0	2	270	0.00	29.711 
01:35	65.0	65.0	65.0	94	63.2	1	4	270	0.02	29.711 
01:40	64.8	64.8	64.8	94	63.0	0	2	270	0.02	29.711 
01:45	64.5	64.5	64.5	94	62.7	0	2	270	0.01	29.714 
01:50	64.3	64.3	64.3	94	62.5	1	3	270	0.02	29.714 
01:55	64.0	64.0	64.0	94	62.2	0	2	270	0.00	29.714 
02:00	64.0	64.0	64.0	94	62.2	0	3	270	0.01	29.716 
02:05	63.9	63.9	63.9	94	62.1	1	3	270	0.01	29.716 
02:10	63.9	63.9	63.9	94	62.1	0	1	270	0.00	29.716 
02:15	63.9	63.9	63.9	94	62.1	0	1	270	0.00	29.712 
02:20	63.9	63.9	63.9	94	62.1	0	2	270	0.00	29.712 
02:25	63.9	63.9	63.9	95	62.4	0	1	270	0.01	29.712 
02:30	63.9	63.9	63.9	95	62.4	0	1	270	0.00	29.714 
02:35	63.9	63.9	63.9	95	62.4	0	1	270	0.00	29.714 
02:40	63.9	63.9	63.9	95	62.4	0	1	270	0.01	29.714 
02:45	63.9	63.9	63.9	95	62.4	0	1	270	0.00	29.714 
02:50	63.9	63.9	63.9	95	62.4	0	1	270	0.00	29.714 
02:55	63.9	63.9	63.9	95	62.4	0	1	270	0.00	29.714 
03:00	63.9	63.9	63.9	95	62.4	0	1	270	0.00	29.716 
03:05	63.9	63.9	63.9	95	62.4	0	1	270	0.01	29.716 
03:10	63.7	63.7	63.7	95	62.2	0	2	270	0.01	29.716 
03:15	63.2	63.2	63.2	95	61.7	0	1	270	0.00	29.714 
03:20	62.9	62.9	62.9	95	61.4	0	2	270	0.00	29.714 
03:25	62.6	62.6	62.6	95	61.1	0	1	270	0.00	29.714 
03:30	62.6	62.6	62.6	95	61.1	0	1	270	0.00	29.715 
03:35	62.4	62.4	62.4	94	60.6	0	4	270	0.01	29.715 
03:40	62.1	62.1	62.1	94	60.3	0	1	270	0.00	29.715 
03:45	61.8	61.8	61.8	94	60.1	0	2	292	0.00	29.720 
03:50	61.6	61.6	61.6	94	59.9	0	1	292	0.00	29.720 
03:55	61.5	61.5	61.5	94	59.8	0	1	292	0.00	29.720 
04:00	61.3	61.3	61.3	94	59.6	0	1	292	0.00	29.724 
04:05	61.2	61.2	61.2	94	59.5	0	1	292	0.00	29.724 
04:10	61.0	61.0	61.0	94	59.3	0	1	292	0.00	29.724 
04:15	61.0	61.0	61.0	94	59.3	0	0	---	0.00	29.728 
04:20	61.0	61.0	61.0	94	59.3	0	0	---	0.00	29.728 
04:25	61.0	61.0	61.0	94	59.3	0	0	---	0.00	29.728 
04:30	61.2	61.2	61.2	95	59.8	0	0	---	0.00	29.730 
04:35	61.3	61.3	61.3	95	59.9	0	1	292	0.00	29.730 
04:40	61.3	61.3	61.3	95	59.9	0	1	292	0.00	29.730 
04:45	61.3	61.3	61.3	95	59.9	0	1	292	0.00	29.732 
04:50	61.3	61.3	61.3	95	59.9	0	0	---	0.00	29.732 
04:55	61.3	61.3	61.3	95	59.9	0	1	292	0.00	29.732 
05:00	61.2	61.2	61.2	94	59.5	0	2	292	0.00	29.735 
05:05	60.9	60.9	60.9	94	59.2	0	1	292	0.00	29.735 
05:10	60.7	60.7	60.7	94	59.0	0	2	292	0.00	29.735 
05:15	60.5	60.5	60.5	94	58.8	0	1	292	0.00	29.747 
05:20	60.4	60.4	60.4	94	58.7	0	3	292	0.00	29.747 
05:25	60.1	60.1	60.1	94	58.4	0	2	292	0.00	29.747 
05:30	59.9	59.9	59.9	94	58.2	0	1	292	0.00	29.746 
05:35	59.8	59.8	59.8	94	58.1	0	2	292	0.00	29.746 
05:40	59.6	59.6	59.6	94	57.9	0	1	292	0.00	29.746 
05:45	59.6	59.6	59.6	94	57.9	0	0	---	0.00	29.748 
05:50	59.5	59.5	59.5	94	57.8	0	1	292	0.00	29.748 
05:55	59.3	59.3	59.3	94	57.6	0	1	292	0.00	29.748 
06:00	59.3	59.3	59.3	94	57.6	0	1	292	0.00	29.750 
06:05	59.2	59.2	59.2	94	57.5	0	1	292	0.00	29.750 
06:10	59.2	59.2	59.2	94	57.5	0	1	292	0.00	29.750 
06:15	59.0	59.0	59.0	94	57.3	0	1	292	0.00	29.751 
06:20	58.9	58.9	58.9	94	57.2	0	1	292	0.00	29.751 
06:25	58.9	58.9	58.9	94	57.2	0	1	292	0.00	29.751 
06:30	58.9	58.9	58.9	94	57.2	0	1	292	0.00	29.754 
06:35	58.7	58.7	58.7	94	57.0	0	1	292	0.00	29.754 
06:40	58.7	58.7	58.7	94	57.0	0	1	292	0.00	29.754 
06:45	58.7	58.7	58.7	94	57.0	0	1	292	0.00	29.759 
06:50	58.6	58.6	58.6	94	56.9	0	0	---	0.00	29.759 
06:55	58.6	58.6	58.6	94	56.9	0	1	292	0.00	29.759 
07:00	58.4	58.4	58.4	94	56.7	0	0	---	0.00	29.767 
07:05	58.4	58.4	58.4	94	56.7	0	1	292	0.00	29.767 
07:10	58.4	58.4	58.4	94	56.7	0	1	292	0.00	29.767 
07:15	58.4	58.4	58.4	94	56.7	0	1	292	0.00	29.772 
07:20	58.4	58.4	58.4	94	56.7	0	1	292	0.00	29.772 
07:25	58.4	58.4	58.4	94	56.7	0	3	292	0.00	29.772 
07:30	58.6	58.6	58.6	94	56.9	0	1	292	0.00	29.778 
07:35	58.6	58.6	58.6	94	56.9	0	1	292	0.00	29.778 
07:40	58.7	58.7	58.7	93	56.7	0	1	292	0.00	29.778 
07:45	58.7	58.7	58.7	93	56.7	0	1	292	0.00	29.784 
07:50	58.9	58.9	58.9	93	56.9	0	1	292	0.00	29.784 
07:55	59.0	59.0	59.0	93	57.0	0	1	292	0.00	29.784 
08:00	59.2	59.2	59.2	93	57.2	0	2	292	0.00	29.790 
08:05	59.3	59.3	59.3	93	57.3	0	2	292	0.00	29.790 
08:10	59.3	59.3	59.3	92	57.0	0	1	292	0.00	29.790 
08:15	59.5	59.5	59.5	92	57.2	0	3	292	0.00	29.795 
08:20	59.6	59.6	59.6	92	57.3	0	2	292	0.00	29.795 
08:25	59.8	59.8	59.8	92	57.5	0	4	292	0.00	29.795 
08:30	59.9	59.9	59.9	91	57.3	0	3	292	0.00	29.798 
08:35	60.1	60.1	60.1	91	57.5	0	1	292	0.00	29.798 
08:40	60.2	60.2	60.2	90	57.3	0	2	292	0.00	29.798 
08:45	60.4	60.4	60.4	90	57.4	1	4	292	0.00	29.800 
08:50	60.5	60.5	60.5	89	57.2	0	2	292	0.00	29.800 
08:55	60.7	60.7	60.7	89	57.4	0	2	292	0.00	29.800 
09:00	60.9	60.9	60.9	88	57.3	0	1	292	0.00	29.800 
09:05	60.9	60.9	60.9	88	57.3	0	4	292	0.00	29.800 
09:10	61.0	61.0	61.0	88	57.4	1	3	292	0.00	29.800 
09:15	61.2	61.2	61.2	87	57.3	0	2	292	0.00	29.812 
09:20	61.3	61.3	61.3	86	57.1	1	3	292	0.00	29.812 
09:25	61.3	61.3	61.3	86	57.1	1	6	292	0.00	29.812 
09:30	61.6	61.6	61.6	86	57.4	1	4	292	0.00	29.818 
09:35	61.5	61.5	61.5	85	56.9	0	3	292	0.00	29.818 
09:40	61.6	61.6	61.6	84	56.7	1	5	292	0.00	29.818 
09:45	61.8	61.8	61.8	84	56.9	1	5	292	0.00	29.819 
09:50	62.1	62.1	62.1	84	57.2	1	5	292	0.00	29.819 
09:55	62.4	62.4	62.4	83	57.2	1	5	292	0.00	29.819 
10:00	62.6	62.6	62.6	82	57.0	1	4	292	0.00	29.821 
10:05	63.1	63.1	63.1	82	57.5	1	5	292	0.00	29.821 
10:10	63.4	63.4	63.4	80	57.1	1	2	292	0.00	29.821 
10:15	63.4	63.4	63.4	80	57.1	1	4	292	0.00	29.830 
10:20	63.4	63.4	63.4	80	57.1	1	3	292	0.00	29.830 
10:25	63.7	63.7	63.7	79	57.1	1	4	292	0.00	29.830 
10:30	64.0	64.0	64.0	78	57.0	1	4	292	0.00	29.832 
10:35	64.3	64.3	64.3	77	56.9	1	5	270	0.00	29.832 
10:40	64.7	64.7	64.7	76	57.0	2	6	270	0.00	29.832 
10:45	65.0	65.0	65.0	76	57.2	2	5	270	0.00	29.842 
10:50	64.8	64.8	64.8	75	56.7	2	7	270	0.00	29.842 
10:55	65.0	65.0	65.0	74	56.5	3	9	270	0.00	29.842 
11:00	65.2	65.2	65.2	75	57.1	2	7	270	0.00	29.843 
11:05	65.3	65.3	65.3	72	56.0	2	8	270	0.00	29.843 
11:10	65.8	65.8	65.8	73	56.9	2	6	270	0.00	29.843 
11:15	66.1	66.1	66.1	71	56.4	1	5	270	0.00	29.844 
11:20	66.3	66.3	66.3	70	56.2	1	4	292	0.00	29.844 
11:25	66.9	66.9	66.9	70	56.8	1	5	315	0.00	29.844 
11:30	67.1	67.1	67.1	70	57.0	1	5	292	0.00	29.840 
11:35	67.8	67.8	67.8	69	57.2	1	4	292	0.00	29.840 
11:40	67.8	67.8	67.8	66	56.0	2	4	270	0.00	29.840 
11:45	67.6	67.6	67.6	66	55.8	2	6	270	0.00	29.845 
11:50	67.9	67.9	67.9	68	56.9	1	5	270	0.00	29.845 
11:55	68.1	68.1	68.1	65	55.9	2	6	270	0.00	29.845 
12:00	67.9	67.9	67.9	63	54.8	2	6	270	0.00	29.846 
12:05	68.4	68.4	68.4	65	56.2	2	7	270	0.00	29.846 
12:10	68.9	68.9	68.9	65	56.6	2	5	270	0.00	29.846 
12:15	69.3	69.3	69.3	62	55.7	2	7	270	0.00	29.845 
12:20	69.3	69.3	69.3	63	56.2	1	5	292	0.00	29.845 
12:25	69.4	69.4	69.4	61	55.4	2	5	270	0.00	29.845 
12:30	69.6	69.6	69.6	59	54.6	3	8	270	0.00	29.843 
12:35	69.4	69.4	69.4	57	53.5	2	6	270	0.00	29.843 
12:40	69.8	69.8	69.8	59	54.8	1	4	270	0.00	29.843 
12:45	70.1	70.1	70.1	59	55.1	2	5	270	0.00	29.847 
12:50	70.3	70.3	70.3	57	54.3	3	8	292	0.00	29.847 
12:55	70.6	70.6	70.6	59	55.6	2	6	270	0.00	29.847 
13:00	70.8	70.8	70.8	55	53.8	2	7	292	0.00	29.847 
13:05	70.8	70.8	70.8	54	53.3	2	7	292	0.00	29.847 
13:10	70.9	70.9	70.9	53	52.9	2	7	315	0.00	29.847 
13:15	70.9	70.9	70.9	54	53.4	2	4	292	0.00	29.850 
13:20	71.5	71.5	71.5	52	52.9	2	5	270	0.00	29.850 
13:25	71.8	71.8	71.8	50	52.1	2	5	270	0.00	29.850 
13:30	72.0	72.0	72.0	51	52.9	2	6	270	0.00	29.852 
13:35	71.6	71.6	71.6	51	52.5	2	9	270	0.00	29.852 
13:40	71.5	71.5	71.5	52	52.9	3	9	292	0.00	29.852 
13:45	71.6	71.6	71.6	52	53.0	1	4	270	0.00	29.854 
13:50	71.8	71.8	71.8	51	52.7	1	5	270	0.00	29.854 
13:55	72.0	72.0	72.0	50	52.3	1	8	270	0.00	29.854 
14:00	72.5	72.5	72.5	51	53.3	1	4	270	0.00	29.855 
14:05	72.8	72.8	72.8	48	52.0	2	6	270	0.00	29.855 
14:10	71.8	71.8	71.8	49	51.6	4	11	270	0.00	29.855 
14:15	71.1	71.1	71.1	50	51.5	4	10	292	0.00	29.858 
14:20	71.5	71.5	71.5	48	50.8	3	11	248	0.00	29.858 
14:25	72.1	72.1	72.1	50	52.4	2	6	270	0.00	29.858 
14:30	72.1	72.1	72.1	48	51.3	2	7	270	0.00	29.861 
14:35	72.1	72.1	72.1	49	51.9	1	5	292	0.00	29.861 
14:40	71.8	71.8	71.8	51	52.7	2	6	315	0.00	29.861 
14:45	72.0	72.0	72.0	48	51.2	3	12	248	0.00	29.857 
14:50	72.3	72.3	72.3	47	50.9	3	10	270	0.00	29.857 
14:55	72.5	72.5	72.5	48	51.7	4	9	270	0.00	29.857 
15:00	72.5	72.5	72.5	50	52.8	2	9	270	0.00	29.858 
15:05	73.0	73.0	73.0	48	52.1	2	7	270	0.00	29.858 
15:10	73.3	73.3	73.3	46	51.3	2	6	270	0.00	29.858 
15:15	72.5	72.5	72.5	46	50.5	3	7	270	0.00	29.865 
15:20	72.3	72.3	72.3	48	51.5	3	7	292	0.00	29.865 
15:25	72.5	72.5	72.5	48	51.7	2	5	270	0.00	29.865 
15:30	72.8	72.8	72.8	46	50.8	2	5	270	0.00	29.866 
15:35	72.7	72.7	72.7	47	51.3	2	6	270	0.00	29.866 
15:40	72.8	72.8	72.8	46	50.8	2	9	292	0.00	29.866 
15:45	73.3	73.3	73.3	45	50.7	1	8	270	0.00	29.866 
15:50	74.0	74.0	74.0	42	49.4	2	11	292	0.00	29.866 
15:55	74.0	74.0	74.0	42	49.4	3	9	270	0.00	29.866 
16:00	73.9	73.9	73.9	41	48.7	3	11	248	0.00	29.868 
16:05	73.3	73.3	73.3	43	49.4	3	7	292	0.00	29.868 
16:10	73.3	73.3	73.3	43	49.4	2	7	270	0.00	29.868 
16:15	73.3	73.3	73.3	44	50.1	2	6	270	0.00	29.870 
16:20	73.3	73.3	73.3	44	50.1	2	6	292	0.00	29.870 
16:25	73.5	73.5	73.5	43	49.6	3	10	270	0.00	29.870 
16:30	73.3	73.3	73.3	43	49.4	2	6	248	0.00	29.868 
16:35	73.5	73.5	73.5	42	49.0	3	8	292	0.00	29.868 
16:40	73.7	73.7	73.7	42	49.2	2	5	270	0.00	29.868 
16:45	73.9	73.9	73.9	41	48.7	2	7	270	0.00	29.868 
16:50	74.0	74.0	74.0	43	50.1	1	4	270	0.00	29.868 
16:55	73.9	73.9	73.9	41	48.7	4	10	270	0.00	29.868 
17:00	73.9	73.9	73.9	41	48.7	3	7	292	0.00	29.873 
17:05	73.7	73.7	73.7	43	49.8	2	7	270	0.00	29.873 
17:10	73.9	73.9	73.9	40	48.0	2	6	270	0.00	29.873 
17:15	73.7	73.7	73.7	40	47.9	3	9	270	0.00	29.881 
17:20	73.7	73.7	73.7	42	49.2	4	9	292	0.00	29.881 
17:25	73.5	73.5	73.5	43	49.6	2	7	292	0.00	29.881 
17:30	73.7	73.7	73.7	40	47.9	2	5	270	0.00	29.885 
17:35	73.9	73.9	73.9	40	48.0	2	5	270	0.00	29.885 
17:40	74.0	74.0	74.0	39	47.5	4	9	270	0.00	29.885 
17:45	73.9	73.9	73.9	39	47.4	2	11	270	0.00	29.885 
17:50	73.9	73.9	73.9	39	47.4	1	6	270	0.00	29.885 
17:55	73.7	73.7	73.7	39	47.2	1	5	270	0.00	29.885 
18:00	73.7	73.7	73.7	39	47.2	3	9	270	0.00	29.889 
18:05	73.5	73.5	73.5	40	47.7	2	6	292	0.00	29.889 
18:10	73.5	73.5	73.5	39	47.0	3	11	292	0.00	29.889 
18:15	73.3	73.3	73.3	39	46.8	4	10	292	0.00	29.895 
18:20	73.3	73.3	73.3	40	47.5	2	7	292	0.00	29.895 
18:25	73.3	73.3	73.3	40	47.5	3	6	270	0.00	29.895 
18:30	73.2	73.2	73.2	40	47.4	2	7	270	0.00	29.901 
18:35	73.2	73.2	73.2	41	48.1	1	4	270	0.00	29.901 
18:40	73.0	73.0	73.0	41	47.9	2	7	270	0.00	29.901 
18:45	72.8	72.8	72.8	39	46.4	3	7	270	0.00	29.905 
18:50	72.8	72.8	72.8	40	47.1	2	6	270	0.00	29.905 
18:55	72.8	72.8	72.8	42	48.4	3	9	292	0.00	29.905 
19:00	72.7	72.7	72.7	40	47.0	3	7	270	0.00	29.915 
19:05	72.5	72.5	72.5	41	47.4	2	6	292	0.00	29.915 
19:10	72.3	72.3	72.3	41	47.3	2	8	270	0.00	29.915 
19:15	72.1	72.1	72.1	40	46.4	2	6	270	0.00	29.919 
19:20	72.1	72.1	72.1	40	46.4	3	7	270	0.00	29.919 
19:25	72.0	72.0	72.0	41	47.0	2	4	292	0.00	29.919 
19:30	71.8	71.8	71.8	42	47.5	0	3	292	0.00	29.920 
19:35	71.6	71.6	71.6	42	47.3	1	5	270	0.00	29.920 
19:40	71.3	71.3	71.3	43	47.6	1	3	292	0.00	29.920 
19:45	71.3	71.3	71.3	43	47.6	1	5	270	0.00	29.921 
19:50	71.1	71.1	71.1	44	48.1	0	2	270	0.00	29.921 
19:55	70.9	70.9	70.9	45	48.5	0	2	270	0.00	29.921 
20:00	70.8	70.8	70.8	44	47.8	1	6	292	0.00	29.929 
20:05	70.6	70.6	70.6	45	48.2	1	4	292	0.00	29.929 
20:10	70.4	70.4	70.4	46	48.6	0	2	292	0.00	29.929 
20:15	70.1	70.1	70.1	46	48.3	0	1	292	0.00	29.934 
20:20	69.8	69.8	69.8	47	48.6	0	2	292	0.00	29.934 
20:25	69.6	69.6	69.6	47	48.5	0	2	292	0.00	29.934 
20:30	69.3	69.3	69.3	48	48.8	0	2	292	0.00	29.939 
20:35	68.9	68.9	68.9	49	48.9	0	2	292	0.00	29.939 
20:40	68.8	68.8	68.8	48	48.3	0	4	292	0.00	29.939 
20:45	68.8	68.8	68.8	48	48.3	0	3	292	0.00	29.936 
20:50	68.6	68.6	68.6	49	48.7	0	3	292	0.00	29.936 
20:55	68.4	68.4	68.4	50	49.0	0	1	292	0.00	29.936 
21:00	68.1	68.1	68.1	50	48.7	0	1	292	0.00	29.949 
21:05	67.9	67.9	67.9	50	48.6	0	1	292	0.00	29.949 
21:10	67.8	67.8	67.8	50	48.5	0	1	292	0.00	29.949 
21:15	67.6	67.6	67.6	50	48.3	0	2	292	0.00	29.950 
21:20	67.6	67.6	67.6	50	48.3	0	1	292	0.00	29.950 
21:25	67.4	67.4	67.4	52	49.2	0	0	---	0.00	29.950 
21:30	67.1	67.1	67.1	52	48.9	0	0	---	0.00	29.959 
21:35	66.8	66.8	66.8	52	48.6	0	0	---	0.00	29.959 
21:40	66.6	66.6	66.6	53	48.9	0	1	292	0.00	29.959 
21:45	66.4	66.4	66.4	54	49.2	0	0	---	0.00	29.965 
21:50	66.1	66.1	66.1	55	49.5	0	0	---	0.00	29.965 
21:55	66.0	66.0	66.0	54	48.9	0	0	---	0.00	29.965 
22:00	65.6	65.6	65.6	55	49.0	0	0	---	0.00	29.972 
22:05	65.5	65.5	65.5	56	49.4	0	0	---	0.00	29.972 
22:10	65.2	65.2	65.2	56	49.1	0	0	---	0.00	29.972 
22:15	65.0	65.0	65.0	57	49.4	0	0	---	0.00	29.975 
22:20	64.8	64.8	64.8	58	49.7	0	0	---	0.00	29.975 
22:25	64.5	64.5	64.5	57	48.9	0	0	---	0.00	29.975 
22:30	64.3	64.3	64.3	58	49.2	0	0	---	0.00	29.980 
22:35	64.2	64.2	64.2	58	49.1	0	0	---	0.00	29.980 
22:40	63.9	63.9	63.9	59	49.3	0	0	---	0.00	29.980 
22:45	63.7	63.7	63.7	59	49.1	0	0	---	0.00	29.981 
22:50	63.5	63.5	63.5	60	49.4	0	0	---	0.00	29.981 
22:55	63.4	63.4	63.4	61	49.7	0	0	---	0.00	29.981 
23:00	63.2	63.2	63.2	61	49.5	0	0	---	0.00	29.985 
23:05	63.1	63.1	63.1	62	49.9	0	0	---	0.00	29.985 
23:10	62.9	62.9	62.9	62	49.7	0	0	---	0.00	29.985 
23:15	62.7	62.7	62.7	63	49.9	0	0	---	0.00	29.991 
23:20	62.6	62.6	62.6	63	49.8	0	0	---	0.00	29.991 
23:25	62.4	62.4	62.4	64	50.1	0	0	---	0.00	29.991 
23:30	62.3	62.3	62.3	64	50.0	0	0	---	0.00	29.996 
23:35	62.1	62.1	62.1	64	49.8	0	0	---	0.00	29.996 
23:40	62.0	62.0	62.0	65	50.1	0	0	---	0.00	29.996 
23:45	61.6	61.6	61.6	66	50.1	0	0	---	0.00	30.000 
23:50	61.5	61.5	61.5	68	50.8	0	0	---	0.00	30.000 
23:55	61.2	61.2	61.2	68	50.5	0	0	---	0.00	30.000 

CoCoRaHS
IN-AL-39
A2 Web Hosting
Creative Commons License
GoDaddy
search engine by freefind advanced

loaded 2018-11-20 09:26:52 • last modified 2010-11-18 10:43:29
Privacy PolicyDisclaimer
• wx.awcolley.com is powered by PmWiki v.2002016 •
• all content (unless otherwise noted) © 2018 A W Colley